sensor_id;sensor_type;location;lat;lon;timestamp;pressure;altitude;pressure_sealevel;temperature;humidity
21129;BME280;10722;51.910;8.352;2024-03-23T00:54:38;100155.03;;;7.39;100.00
21129;BME280;10722;51.910;8.352;2024-03-23T00:57:22;100165.50;;;7.48;100.00
21129;BME280;10722;51.910;8.352;2024-03-23T01:00:06;100159.53;;;7.49;100.00
21129;BME280;10722;51.910;8.352;2024-03-23T01:02:50;100156.47;;;7.26;100.00
21129;BME280;10722;51.910;8.352;2024-03-23T01:05:34;100150.56;;;7.32;100.00
21129;BME280;10722;51.910;8.352;2024-03-23T01:08:18;100148.34;;;7.08;100.00
21129;BME280;10722;51.910;8.352;2024-03-23T01:11:03;100144.44;;;7.25;100.00
21129;BME280;10722;51.910;8.352;2024-03-23T01:13:47;100126.19;;;7.13;100.00
21129;BME280;10722;51.910;8.352;2024-03-23T01:16:31;100135.84;;;7.25;100.00
21129;BME280;10722;51.910;8.352;2024-03-23T01:19:15;100132.38;;;7.23;100.00
21129;BME280;10722;51.910;8.352;2024-03-23T01:22:00;100124.66;;;7.21;100.00
21129;BME280;10722;51.910;8.352;2024-03-23T01:24:44;100126.25;;;7.17;100.00
21129;BME280;10722;51.910;8.352;2024-03-23T01:27:28;100111.13;;;6.92;100.00
21129;BME280;10722;51.910;8.352;2024-03-23T01:30:13;100115.94;;;6.78;100.00
21129;BME280;10722;51.910;8.352;2024-03-23T01:32:57;100113.94;;;6.65;100.00
21129;BME280;10722;51.910;8.352;2024-03-23T01:35:41;100121.59;;;6.63;100.00
21129;BME280;10722;51.910;8.352;2024-03-23T01:38:26;100131.84;;;6.25;100.00
21129;BME280;10722;51.910;8.352;2024-03-23T01:41:10;100137.94;;;6.31;100.00
21129;BME280;10722;51.910;8.352;2024-03-23T01:43:55;100138.69;;;6.26;100.00
21129;BME280;10722;51.910;8.352;2024-03-23T01:46:39;100141.31;;;6.28;100.00
21129;BME280;10722;51.910;8.352;2024-03-23T01:49:23;100137.13;;;6.33;100.00
21129;BME280;10722;51.910;8.352;2024-03-23T01:52:08;100141.91;;;6.19;100.00
21129;BME280;10722;51.910;8.352;2024-03-23T01:54:53;100142.75;;;6.18;100.00
21129;BME280;10722;51.910;8.352;2024-03-23T01:57:38;100133.75;;;6.01;100.00
21129;BME280;10722;51.910;8.352;2024-03-23T02:00:22;100138.97;;;6.04;100.00
21129;BME280;10722;51.910;8.352;2024-03-23T02:03:24;100140.25;;;6.20;100.00
21129;BME280;10722;51.910;8.352;2024-03-23T02:06:09;100137.19;;;6.35;100.00
21129;BME280;10722;51.910;8.352;2024-03-23T02:08:54;100124.75;;;6.17;100.00
21129;BME280;10722;51.910;8.352;2024-03-23T02:11:38;100124.19;;;6.28;100.00
21129;BME280;10722;51.910;8.352;2024-03-23T02:14:22;100118.28;;;6.33;100.00
21129;BME280;10722;51.910;8.352;2024-03-23T02:17:06;100124.34;;;6.35;100.00
21129;BME280;10722;51.910;8.352;2024-03-23T02:19:51;100138.13;;;6.38;100.00
21129;BME280;10722;51.910;8.352;2024-03-23T02:22:36;100130.41;;;6.37;100.00
21129;BME280;10722;51.910;8.352;2024-03-23T02:25:20;100124.00;;;6.21;100.00
21129;BME280;10722;51.910;8.352;2024-03-23T02:28:05;100109.28;;;6.15;100.00
21129;BME280;10722;51.910;8.352;2024-03-23T02:30:49;100105.38;;;5.96;100.00
21129;BME280;10722;51.910;8.352;2024-03-23T02:33:34;100115.19;;;6.11;100.00
21129;BME280;10722;51.910;8.352;2024-03-23T02:36:18;100119.06;;;6.28;100.00
21129;BME280;10722;51.910;8.352;2024-03-23T02:39:02;100096.94;;;6.35;100.00
21129;BME280;10722;51.910;8.352;2024-03-23T02:41:46;100108.09;;;6.36;100.00
21129;BME280;10722;51.910;8.352;2024-03-23T02:44:30;100100.94;;;6.24;100.00
21129;BME280;10722;51.910;8.352;2024-03-23T02:47:14;100104.72;;;6.03;100.00
21129;BME280;10722;51.910;8.352;2024-03-23T02:49:58;100088.91;;;5.90;100.00
21129;BME280;10722;51.910;8.352;2024-03-23T02:52:42;100086.13;;;5.80;100.00
21129;BME280;10722;51.910;8.352;2024-03-23T02:55:26;100094.38;;;5.70;100.00
21129;BME280;10722;51.910;8.352;2024-03-23T02:58:10;100097.25;;;5.81;100.00
21129;BME280;10722;51.910;8.352;2024-03-23T03:00:55;100090.03;;;5.68;100.00
21129;BME280;10722;51.910;8.352;2024-03-23T03:03:39;100089.25;;;5.70;100.00
21129;BME280;10722;51.910;8.352;2024-03-23T03:06:26;100081.56;;;5.70;100.00
21129;BME280;10722;51.910;8.352;2024-03-23T03:09:11;100082.41;;;5.69;100.00
21129;BME280;10722;51.910;8.352;2024-03-23T03:11:55;100082.22;;;5.63;100.00
21129;BME280;10722;51.910;8.352;2024-03-23T03:14:40;100079.84;;;5.69;100.00
21129;BME280;10722;51.910;8.352;2024-03-23T03:17:24;100075.50;;;5.68;100.00
21129;BME280;10722;51.910;8.352;2024-03-23T03:20:09;100087.25;;;5.60;100.00
21129;BME280;10722;51.910;8.352;2024-03-23T03:22:53;100087.09;;;5.54;100.00
21129;BME280;10722;51.910;8.352;2024-03-23T03:25:38;100074.16;;;5.49;100.00
21129;BME280;10722;51.910;8.352;2024-03-23T03:28:21;100085.22;;;5.48;100.00
21129;BME280;10722;51.910;8.352;2024-03-23T03:31:05;100082.50;;;5.42;100.00
21129;BME280;10722;51.910;8.352;2024-03-23T03:33:50;100073.00;;;5.38;100.00
21129;BME280;10722;51.910;8.352;2024-03-23T03:36:34;100067.75;;;5.35;100.00
21129;BME280;10722;51.910;8.352;2024-03-23T03:39:18;100077.72;;;5.24;100.00
21129;BME280;10722;51.910;8.352;2024-03-23T03:42:02;100080.16;;;5.20;100.00
21129;BME280;10722;51.910;8.352;2024-03-23T03:44:47;100081.00;;;5.20;100.00
21129;BME280;10722;51.910;8.352;2024-03-23T03:47:31;100077.56;;;5.18;100.00
21129;BME280;10722;51.910;8.352;2024-03-23T03:50:16;100081.00;;;5.20;100.00
21129;BME280;10722;51.910;8.352;2024-03-23T03:53:01;100083.59;;;5.20;100.00
21129;BME280;10722;51.910;8.352;2024-03-23T03:55:46;100081.00;;;5.20;100.00
21129;BME280;10722;51.910;8.352;2024-03-23T03:58:30;100082.72;;;5.20;100.00
21129;BME280;10722;51.910;8.352;2024-03-23T04:01:14;100075.97;;;5.23;100.00
21129;BME280;10722;51.910;8.352;2024-03-23T04:03:59;100077.66;;;5.21;100.00
21129;BME280;10722;51.910;8.352;2024-03-23T04:06:44;100068.25;;;5.22;100.00
21129;BME280;10722;51.910;8.352;2024-03-23T04:09:28;100080.13;;;5.18;100.00
21129;BME280;10722;51.910;8.352;2024-03-23T04:12:12;100081.09;;;5.23;100.00
21129;BME280;10722;51.910;8.352;2024-03-23T04:14:56;100082.78;;;5.21;100.00
21129;BME280;10722;51.910;8.352;2024-03-23T04:17:40;100085.59;;;5.30;100.00
21129;BME280;10722;51.910;8.352;2024-03-23T04:20:24;100079.47;;;5.25;100.00
21129;BME280;10722;51.910;8.352;2024-03-23T04:23:09;100083.72;;;5.25;100.00
21129;BME280;10722;51.910;8.352;2024-03-23T04:25:53;100063.16;;;5.23;100.00
21129;BME280;10722;51.910;8.352;2024-03-23T04:28:37;100061.91;;;5.40;100.00
21129;BME280;10722;51.910;8.352;2024-03-23T04:31:21;100063.13;;;5.22;100.00
21129;BME280;10722;51.910;8.352;2024-03-23T04:34:05;100064.81;;;5.21;100.00
21129;BME280;10722;51.910;8.352;2024-03-23T04:36:49;100079.78;;;5.36;100.00
21129;BME280;10722;51.910;8.352;2024-03-23T04:39:33;100072.00;;;5.33;100.00
21129;BME280;10722;51.910;8.352;2024-03-23T04:42:18;100078.00;;;5.35;100.00
21129;BME280;10722;51.910;8.352;2024-03-23T04:45:03;100076.97;;;5.28;100.00
21129;BME280;10722;51.910;8.352;2024-03-23T04:47:47;100060.47;;;5.19;100.00
21129;BME280;10722;51.910;8.352;2024-03-23T04:50:31;100032.53;;;5.29;100.00
21129;BME280;10722;51.910;8.352;2024-03-23T04:53:16;100022.66;;;5.43;100.00
21129;BME280;10722;51.910;8.352;2024-03-23T04:56:00;100045.47;;;5.64;100.00
21129;BME280;10722;51.910;8.352;2024-03-23T04:58:44;100047.19;;;5.64;100.00
21129;BME280;10722;51.910;8.352;2024-03-23T05:01:28;100025.75;;;5.63;100.00
21129;BME280;10722;51.910;8.352;2024-03-23T05:04:12;100024.47;;;5.79;100.00
21129;BME280;10722;51.910;8.352;2024-03-23T05:06:56;100015.97;;;5.81;100.00
21129;BME280;10722;51.910;8.352;2024-03-23T05:09:40;100024.25;;;5.71;100.00
21129;BME280;10722;51.910;8.352;2024-03-23T05:12:24;100024.72;;;5.55;100.00
21129;BME280;10722;51.910;8.352;2024-03-23T05:15:08;100029.00;;;5.24;100.00
21129;BME280;10722;51.910;8.352;2024-03-23T05:17:53;100026.59;;;5.30;100.00
21129;BME280;10722;51.910;8.352;2024-03-23T05:20:37;100028.50;;;5.37;100.00
21129;BME280;10722;51.910;8.352;2024-03-23T05:23:21;100025.69;;;5.28;100.00
21129;BME280;10722;51.910;8.352;2024-03-23T05:26:05;100025.75;;;5.30;100.00
21129;BME280;10722;51.910;8.352;2024-03-23T05:28:49;100018.22;;;5.06;100.00
21129;BME280;10722;51.910;8.352;2024-03-23T05:31:34;100010.59;;;5.09;100.00
21129;BME280;10722;51.910;8.352;2024-03-23T05:34:18;100006.34;;;5.09;100.00
21129;BME280;10722;51.910;8.352;2024-03-23T05:37:02;100008.13;;;5.12;100.00
21129;BME280;10722;51.910;8.352;2024-03-23T05:39:47;100013.69;;;5.27;100.00
21129;BME280;10722;51.910;8.352;2024-03-23T05:42:31;100014.34;;;5.20;100.00
21129;BME280;10722;51.910;8.352;2024-03-23T05:45:15;100024.25;;;5.08;100.00
21129;BME280;10722;51.910;8.352;2024-03-23T05:47:59;100027.75;;;5.10;100.00
21129;BME280;10722;51.910;8.352;2024-03-23T05:50:44;100024.56;;;5.19;100.00
21129;BME280;10722;51.910;8.352;2024-03-23T05:53:28;100024.44;;;5.14;100.00
21129;BME280;10722;51.910;8.352;2024-03-23T05:56:13;100023.34;;;5.37;100.00
21129;BME280;10722;51.910;8.352;2024-03-23T05:58:57;100027.69;;;5.38;100.00
21129;BME280;10722;51.910;8.352;2024-03-23T06:01:41;100023.03;;;5.25;100.00
21129;BME280;10722;51.910;8.352;2024-03-23T06:04:26;100025.28;;;5.14;100.00
21129;BME280;10722;51.910;8.352;2024-03-23T06:07:10;100024.44;;;5.14;100.00
21129;BME280;10722;51.910;8.352;2024-03-23T06:09:55;100026.53;;;5.27;100.00
21129;BME280;10722;51.910;8.352;2024-03-23T06:12:39;100024.84;;;5.29;100.00
21129;BME280;10722;51.910;8.352;2024-03-23T06:15:24;100035.84;;;5.24;100.00
21129;BME280;10722;51.910;8.352;2024-03-23T06:18:08;100035.03;;;5.26;100.00
21129;BME280;10722;51.910;8.352;2024-03-23T06:20:56;100033.53;;;5.34;100.00
21129;BME280;10722;51.910;8.352;2024-03-23T06:23:41;100029.72;;;5.52;100.00
21129;BME280;10722;51.910;8.352;2024-03-23T06:26:26;100041.06;;;5.60;100.00
21129;BME280;10722;51.910;8.352;2024-03-23T06:29:10;100035.00;;;5.56;100.00
21129;BME280;10722;51.910;8.352;2024-03-23T06:31:54;100029.22;;;5.64;100.00
21129;BME280;10722;51.910;8.352;2024-03-23T06:34:41;100029.38;;;5.71;100.00
21129;BME280;10722;51.910;8.352;2024-03-23T06:37:26;100038.84;;;5.72;100.00
21129;BME280;10722;51.910;8.352;2024-03-23T06:40:10;100040.72;;;5.79;100.00
21129;BME280;10722;51.910;8.352;2024-03-23T06:42:54;100051.53;;;5.99;100.00
21129;BME280;10722;51.910;8.352;2024-03-23T06:45:38;100050.81;;;6.05;100.00
21129;BME280;10722;51.910;8.352;2024-03-23T06:48:22;100044.13;;;5.78;100.00
21129;BME280;10722;51.910;8.352;2024-03-23T06:51:06;100047.19;;;5.97;100.00
21129;BME280;10722;51.910;8.352;2024-03-23T06:53:50;100047.44;;;6.06;100.00
21129;BME280;10722;51.910;8.352;2024-03-23T06:56:35;100038.22;;;5.82;100.00
21129;BME280;10722;51.910;8.352;2024-03-23T06:59:19;100036.97;;;5.98;100.00
21129;BME280;10722;51.910;8.352;2024-03-23T07:02:05;100038.19;;;6.13;100.00
21129;BME280;10722;51.910;8.352;2024-03-23T07:04:49;100040.31;;;5.96;100.00
21129;BME280;10722;51.910;8.352;2024-03-23T07:07:34;100048.31;;;6.08;100.00
21129;BME280;10722;51.910;8.352;2024-03-23T07:10:18;100043.28;;;6.11;100.00
21129;BME280;10722;51.910;8.352;2024-03-23T07:13:02;100046.94;;;6.21;100.00
21129;BME280;10722;51.910;8.352;2024-03-23T07:15:53;100030.94;;;6.33;100.00
21129;BME280;10722;51.910;8.352;2024-03-23T07:18:37;100021.91;;;6.48;100.00
21129;BME280;10722;51.910;8.352;2024-03-23T07:21:21;100029.91;;;6.62;100.00
21129;BME280;10722;51.910;8.352;2024-03-23T07:24:05;100023.16;;;6.28;100.00
21129;BME280;10722;51.910;8.352;2024-03-23T07:26:50;100022.63;;;6.43;100.00
21129;BME280;10722;51.910;8.352;2024-03-23T07:29:34;100017.34;;;6.37;100.00
21129;BME280;10722;51.910;8.352;2024-03-23T07:32:18;100010.78;;;6.13;100.00
21129;BME280;10722;51.910;8.352;2024-03-23T07:35:02;100019.63;;;6.24;100.00
21129;BME280;10722;51.910;8.352;2024-03-23T07:37:47;100023.53;;;6.45;100.00
21129;BME280;10722;51.910;8.352;2024-03-23T07:40:31;100022.16;;;6.59;100.00
21129;BME280;10722;51.910;8.352;2024-03-23T07:43:15;100025.03;;;6.73;100.00
21129;BME280;10722;51.910;8.352;2024-03-23T07:46:00;100032.16;;;7.29;100.00
21129;BME280;10722;51.910;8.352;2024-03-23T07:48:44;100014.66;;;7.56;100.00
21129;BME280;10722;51.910;8.352;2024-03-23T07:51:28;100009.25;;;7.90;100.00
21129;BME280;10722;51.910;8.352;2024-03-23T07:54:12;99997.84;;;7.77;100.00
21129;BME280;10722;51.910;8.352;2024-03-23T07:56:56;99979.53;;;7.58;100.00
21129;BME280;10722;51.910;8.352;2024-03-23T07:59:41;99967.81;;;7.29;100.00
21129;BME280;10722;51.910;8.352;2024-03-23T08:02:25;99960.28;;;7.86;100.00
21129;BME280;10722;51.910;8.352;2024-03-23T08:05:09;99948.72;;;8.19;100.00
21129;BME280;10722;51.910;8.352;2024-03-23T08:07:53;99932.72;;;8.39;100.00
21129;BME280;10722;51.910;8.352;2024-03-23T08:10:51;99929.75;;;8.11;100.00
21129;BME280;10722;51.910;8.352;2024-03-23T08:13:38;99924.88;;;7.75;100.00
21129;BME280;10722;51.910;8.352;2024-03-23T08:16:23;99941.28;;;7.80;100.00
21129;BME280;10722;51.910;8.352;2024-03-23T08:19:08;99939.56;;;7.82;100.00
21129;BME280;10722;51.910;8.352;2024-03-23T08:21:51;99940.59;;;7.92;100.00
21129;BME280;10722;51.910;8.352;2024-03-23T08:24:36;99929.41;;;7.91;100.00
21129;BME280;10722;51.910;8.352;2024-03-23T08:27:20;99933.16;;;7.55;100.00
21129;BME280;10722;51.910;8.352;2024-03-23T08:30:05;99924.22;;;7.36;100.00
21129;BME280;10722;51.910;8.352;2024-03-23T08:32:50;99921.94;;;8.08;100.00
21129;BME280;10722;51.910;8.352;2024-03-23T08:35:34;99897.16;;;7.60;100.00
21129;BME280;10722;51.910;8.352;2024-03-23T08:38:19;99909.25;;;8.22;100.00
21129;BME280;10722;51.910;8.352;2024-03-23T08:41:04;99874.50;;;7.92;100.00
21129;BME280;10722;51.910;8.352;2024-03-23T08:43:49;99865.91;;;7.92;100.00
21129;BME280;10722;51.910;8.352;2024-03-23T08:46:33;99867.66;;;8.58;99.70
21129;BME280;10722;51.910;8.352;2024-03-23T08:49:17;99858.19;;;8.54;99.57
21129;BME280;10722;51.910;8.352;2024-03-23T08:52:01;99848.13;;;8.77;97.71
21129;BME280;10722;51.910;8.352;2024-03-23T08:54:46;99813.13;;;9.02;95.14
21129;BME280;10722;51.910;8.352;2024-03-23T08:57:30;99804.66;;;9.18;94.62
21129;BME280;10722;51.910;8.352;2024-03-23T09:00:15;99783.25;;;8.40;93.70
21129;BME280;10722;51.910;8.352;2024-03-23T09:02:59;99801.78;;;8.86;93.81
21129;BME280;10722;51.910;8.352;2024-03-23T09:05:44;99804.63;;;8.36;93.52
21129;BME280;10722;51.910;8.352;2024-03-23T09:08:28;99793.28;;;8.17;92.95
21129;BME280;10722;51.910;8.352;2024-03-23T09:11:13;99775.13;;;8.09;91.92
21129;BME280;10722;51.910;8.352;2024-03-23T09:13:57;99813.28;;;7.73;93.68
21129;BME280;10722;51.910;8.352;2024-03-23T09:16:42;99864.25;;;7.95;95.23
21129;BME280;10722;51.910;8.352;2024-03-23T09:19:28;99902.22;;;8.08;96.27
21129;BME280;10722;51.910;8.352;2024-03-23T09:22:12;99856.97;;;8.30;94.05
21129;BME280;10722;51.910;8.352;2024-03-23T09:24:57;99817.06;;;8.66;92.15
21129;BME280;10722;51.910;8.352;2024-03-23T09:27:41;99792.66;;;9.24;90.11
21129;BME280;10722;51.910;8.352;2024-03-23T09:30:25;99723.41;;;8.67;87.70
21129;BME280;10722;51.910;8.352;2024-03-23T09:33:13;99711.16;;;8.45;87.14
21129;BME280;10722;51.910;8.352;2024-03-23T09:35:57;99702.41;;;8.34;85.98
21129;BME280;10722;51.910;8.352;2024-03-23T09:38:41;99716.38;;;8.56;85.87
21129;BME280;10722;51.910;8.352;2024-03-23T09:41:26;99758.53;;;8.56;86.66
21129;BME280;10722;51.910;8.352;2024-03-23T09:44:10;99754.47;;;8.83;86.25
21129;BME280;10722;51.910;8.352;2024-03-23T09:46:55;99732.13;;;8.82;84.85
21129;BME280;10722;51.910;8.352;2024-03-23T09:49:41;99686.53;;;8.79;83.99
21129;BME280;10722;51.910;8.352;2024-03-23T09:52:25;99628.06;;;8.77;81.45
21129;BME280;10722;51.910;8.352;2024-03-23T09:55:10;99656.91;;;9.59;81.22
21129;BME280;10722;51.910;8.352;2024-03-23T09:57:54;99694.00;;;9.77;81.77
21129;BME280;10722;51.910;8.352;2024-03-23T10:00:39;99669.66;;;9.24;80.61
21129;BME280;10722;51.910;8.352;2024-03-23T10:03:23;99686.97;;;9.45;80.68
21129;BME280;10722;51.910;8.352;2024-03-23T10:06:08;99641.78;;;8.74;80.38
21129;BME280;10722;51.910;8.352;2024-03-23T10:08:52;99692.53;;;8.78;81.03
21129;BME280;10722;51.910;8.352;2024-03-23T10:11:37;99728.78;;;8.96;82.16
21129;BME280;10722;51.910;8.352;2024-03-23T10:14:30;99677.03;;;8.73;80.45
21129;BME280;10722;51.910;8.352;2024-03-23T10:17:17;99694.03;;;8.51;80.53
21129;BME280;10722;51.910;8.352;2024-03-23T10:20:01;99678.31;;;7.55;80.59
21129;BME280;10722;51.910;8.352;2024-03-23T10:22:46;99686.06;;;6.97;81.07
21129;BME280;10722;51.910;8.352;2024-03-23T10:25:30;99712.94;;;6.63;81.57
21129;BME280;10722;51.910;8.352;2024-03-23T10:28:14;99734.56;;;6.74;82.46
21129;BME280;10722;51.910;8.352;2024-03-23T10:31:11;99737.13;;;6.74;82.15
21129;BME280;10722;51.910;8.352;2024-03-23T10:33:55;99766.59;;;6.95;82.64
21129;BME280;10722;51.910;8.352;2024-03-23T10:36:41;99761.59;;;7.03;82.88
21129;BME280;10722;51.910;8.352;2024-03-23T10:39:26;99763.63;;;7.22;82.77
21129;BME280;10722;51.910;8.352;2024-03-23T10:42:10;99765.50;;;7.34;81.84
21129;BME280;10722;51.910;8.352;2024-03-23T10:44:54;99758.59;;;7.94;82.03
21129;BME280;10722;51.910;8.352;2024-03-23T10:47:39;99713.88;;;8.62;79.78
21129;BME280;10722;51.910;8.352;2024-03-23T10:50:24;99649.84;;;8.18;78.61
21129;BME280;10722;51.910;8.352;2024-03-23T10:53:08;99742.47;;;8.86;80.58
21129;BME280;10722;51.910;8.352;2024-03-23T10:55:55;99746.19;;;9.22;80.21
21129;BME280;10722;51.910;8.352;2024-03-23T10:58:40;99705.50;;;8.89;79.64
21129;BME280;10722;51.910;8.352;2024-03-23T11:01:25;99722.84;;;9.05;79.76
21129;BME280;10722;51.910;8.352;2024-03-23T11:04:09;99725.34;;;8.97;79.01
21129;BME280;10722;51.910;8.352;2024-03-23T11:06:53;99624.06;;;8.15;77.05
21129;BME280;10722;51.910;8.352;2024-03-23T11:15:11;99742.03;;;8.40;79.67
21129;BME280;10722;51.910;8.352;2024-03-23T11:18:05;99727.94;;;9.01;79.11
21129;BME280;10722;51.910;8.352;2024-03-23T11:20:50;99702.31;;;9.19;77.67
21129;BME280;10722;51.910;8.352;2024-03-23T11:23:34;99667.06;;;9.24;76.35
21129;BME280;10722;51.910;8.352;2024-03-23T11:26:19;99645.63;;;9.39;75.89
21129;BME280;10722;51.910;8.352;2024-03-23T11:29:14;99665.53;;;9.61;76.17
21129;BME280;10722;51.910;8.352;2024-03-23T11:31:59;99610.28;;;9.21;74.97
21129;BME280;10722;51.910;8.352;2024-03-23T11:34:43;99638.50;;;8.96;75.85
21129;BME280;10722;51.910;8.352;2024-03-23T11:37:27;99631.56;;;8.88;75.46
21129;BME280;10722;51.910;8.352;2024-03-23T11:40:19;99633.34;;;8.96;75.76
21129;BME280;10722;51.910;8.352;2024-03-23T11:43:05;99673.22;;;9.51;75.67
21129;BME280;10722;51.910;8.352;2024-03-23T11:45:51;99648.34;;;9.63;74.71
21129;BME280;10722;51.910;8.352;2024-03-23T11:48:35;99644.13;;;9.90;74.82
21129;BME280;10722;51.910;8.352;2024-03-23T11:51:20;99514.06;;;9.70;71.58
21129;BME280;10722;51.910;8.352;2024-03-23T11:54:08;99516.63;;;9.70;71.10
21129;BME280;10722;51.910;8.352;2024-03-23T11:57:05;99532.19;;;10.26;70.55
21129;BME280;10722;51.910;8.352;2024-03-23T11:59:51;99545.13;;;10.57;70.27
21129;BME280;10722;51.910;8.352;2024-03-23T12:02:36;99467.56;;;10.05;69.21
21129;BME280;10722;51.910;8.352;2024-03-23T12:05:20;99504.59;;;10.58;69.16
21129;BME280;10722;51.910;8.352;2024-03-23T12:08:21;99445.19;;;9.58;68.27
21129;BME280;10722;51.910;8.352;2024-03-23T12:11:13;99504.53;;;9.41;69.63
21129;BME280;10722;51.910;8.352;2024-03-23T12:13:59;99575.78;;;9.08;69.95
21129;BME280;10722;51.910;8.352;2024-03-23T12:16:43;99524.81;;;7.60;70.37
21129;BME280;10722;51.910;8.352;2024-03-23T12:19:27;99608.25;;;6.53;73.46
21129;BME280;10722;51.910;8.352;2024-03-23T12:22:11;99739.50;;;6.17;76.87
21129;BME280;10722;51.910;8.352;2024-03-23T12:24:56;99795.91;;;6.14;78.60
21129;BME280;10722;51.910;8.352;2024-03-23T12:27:40;99801.94;;;6.14;79.74
21129;BME280;10722;51.910;8.352;2024-03-23T12:30:24;99816.75;;;6.26;79.89
21129;BME280;10722;51.910;8.352;2024-03-23T12:33:11;99818.34;;;6.65;79.93
21129;BME280;10722;51.910;8.352;2024-03-23T12:35:56;99812.84;;;6.92;79.76
21129;BME280;10722;51.910;8.352;2024-03-23T12:38:40;99831.31;;;7.18;80.61
21129;BME280;10722;51.910;8.352;2024-03-23T12:41:24;99840.72;;;8.36;79.32
21129;BME280;10722;51.910;8.352;2024-03-23T12:44:09;99736.06;;;8.47;75.78
21129;BME280;10722;51.910;8.352;2024-03-23T12:46:53;99686.50;;;8.76;74.67
21129;BME280;10722;51.910;8.352;2024-03-23T12:49:38;99700.72;;;9.42;74.10
21129;BME280;10722;51.910;8.352;2024-03-23T12:52:22;99574.41;;;10.08;69.88
21129;BME280;10722;51.910;8.352;2024-03-23T12:55:06;99532.22;;;10.48;68.42
21129;BME280;10722;51.910;8.352;2024-03-23T12:57:51;99588.19;;;10.72;69.62
21129;BME280;10722;51.910;8.352;2024-03-23T13:00:35;99472.66;;;9.28;68.16
21129;BME280;10722;51.910;8.352;2024-03-23T13:03:19;99554.63;;;10.50;68.24
21129;BME280;10722;51.910;8.352;2024-03-23T13:06:03;99473.44;;;9.09;67.34
21129;BME280;10722;51.910;8.352;2024-03-23T13:08:47;99540.66;;;9.49;67.84
21129;BME280;10722;51.910;8.352;2024-03-23T13:11:32;99539.91;;;9.93;67.94
21129;BME280;10722;51.910;8.352;2024-03-23T13:14:16;99583.06;;;10.37;68.53
21129;BME280;10722;51.910;8.352;2024-03-23T13:17:01;99578.66;;;9.83;69.00
21129;BME280;10722;51.910;8.352;2024-03-23T13:19:45;99557.75;;;9.10;68.60
21129;BME280;10722;51.910;8.352;2024-03-23T13:22:30;99646.28;;;9.06;70.94
21129;BME280;10722;51.910;8.352;2024-03-23T13:25:14;99645.31;;;8.88;70.85
21129;BME280;10722;51.910;8.352;2024-03-23T13:27:58;99679.28;;;7.63;73.33
21129;BME280;10722;51.910;8.352;2024-03-23T13:30:52;99809.84;;;7.17;77.62
21129;BME280;10722;51.910;8.352;2024-03-23T13:33:37;99856.09;;;6.25;80.27
21129;BME280;10722;51.910;8.352;2024-03-23T13:36:21;99898.94;;;5.90;82.63
21129;BME280;10722;51.910;8.352;2024-03-23T13:39:05;99937.81;;;6.03;85.30
21129;BME280;10722;51.910;8.352;2024-03-23T13:41:50;99956.69;;;6.43;86.47
21129;BME280;10722;51.910;8.352;2024-03-23T13:44:33;99921.56;;;7.30;83.96
21129;BME280;10722;51.910;8.352;2024-03-23T13:47:18;99911.50;;;7.99;83.13
21129;BME280;10722;51.910;8.352;2024-03-23T13:50:03;99862.13;;;8.30;81.15
21129;BME280;10722;51.910;8.352;2024-03-23T13:52:47;99837.72;;;8.68;80.76
21129;BME280;10722;51.910;8.352;2024-03-23T13:55:32;99790.06;;;8.38;78.98
21129;BME280;10722;51.910;8.352;2024-03-23T13:58:16;99767.69;;;7.64;79.08
21129;BME280;10722;51.910;8.352;2024-03-23T14:01:00;99806.78;;;7.40;81.42
21129;BME280;10722;51.910;8.352;2024-03-23T14:03:44;99819.31;;;7.18;81.72
21129;BME280;10722;51.910;8.352;2024-03-23T14:06:29;99873.34;;;7.72;83.80
21129;BME280;10722;51.910;8.352;2024-03-23T14:09:13;99906.44;;;8.03;84.36
21129;BME280;10722;51.910;8.352;2024-03-23T14:11:58;99850.47;;;7.35;82.31
21129;BME280;10722;51.910;8.352;2024-03-23T14:14:42;99798.25;;;6.91;80.63
21129;BME280;10722;51.910;8.352;2024-03-23T14:17:26;99822.31;;;6.93;80.90
21129;BME280;10722;51.910;8.352;2024-03-23T14:20:11;99843.06;;;7.05;80.91
21129;BME280;10722;51.910;8.352;2024-03-23T14:22:56;99855.22;;;7.12;80.39
21129;BME280;10722;51.910;8.352;2024-03-23T14:25:40;99896.97;;;6.99;82.21
21129;BME280;10722;51.910;8.352;2024-03-23T14:28:25;99927.25;;;7.14;83.50
21129;BME280;10722;51.910;8.352;2024-03-23T14:31:09;99928.88;;;7.09;84.14
21129;BME280;10722;51.910;8.352;2024-03-23T14:33:54;99946.66;;;6.98;85.71
21129;BME280;10722;51.910;8.352;2024-03-23T14:36:38;99950.09;;;6.97;86.84
21129;BME280;10722;51.910;8.352;2024-03-23T14:39:23;99980.25;;;7.04;87.69
21129;BME280;10722;51.910;8.352;2024-03-23T14:42:07;100006.72;;;7.00;88.35
21129;BME280;10722;51.910;8.352;2024-03-23T14:44:52;100007.97;;;6.78;89.13
21129;BME280;10722;51.910;8.352;2024-03-23T14:47:36;100024.41;;;6.85;90.13
21129;BME280;10722;51.910;8.352;2024-03-23T14:50:20;100051.59;;;6.75;91.15
21129;BME280;10722;51.910;8.352;2024-03-23T14:53:05;100026.00;;;6.42;91.32
21129;BME280;10722;51.910;8.352;2024-03-23T14:55:49;100017.88;;;6.61;91.50
21129;BME280;10722;51.910;8.352;2024-03-23T14:58:33;100010.03;;;6.94;91.83
21129;BME280;10722;51.910;8.352;2024-03-23T15:01:18;99989.97;;;7.21;91.11
21129;BME280;10722;51.910;8.352;2024-03-23T15:04:02;99950.88;;;7.40;89.30
21129;BME280;10722;51.910;8.352;2024-03-23T15:06:47;99902.97;;;7.48;87.36
21129;BME280;10722;51.910;8.352;2024-03-23T15:09:31;99898.50;;;7.91;87.49
21129;BME280;10722;51.910;8.352;2024-03-23T15:12:15;99919.16;;;8.50;88.01
21129;BME280;10722;51.910;8.352;2024-03-23T15:14:59;99840.09;;;8.51;84.78
21129;BME280;10722;51.910;8.352;2024-03-23T15:17:43;99837.72;;;8.68;84.59
21129;BME280;10722;51.910;8.352;2024-03-23T15:20:27;99815.72;;;9.05;83.35
21129;BME280;10722;51.910;8.352;2024-03-23T15:23:11;99781.47;;;9.25;81.84
21129;BME280;10722;51.910;8.352;2024-03-23T15:25:56;99753.59;;;8.79;80.67
21129;BME280;10722;51.910;8.352;2024-03-23T15:28:40;99715.38;;;8.41;79.50
21129;BME280;10722;51.910;8.352;2024-03-23T15:31:25;99666.28;;;8.29;77.66